sensor_id;sensor_type;location;lat;lon;timestamp;P1;durP1;ratioP1;P2;durP2;ratioP2
253;SDS011;590;48.772;8.846;2022-10-30T00:01:49;8.37;;;7.00;;
253;SDS011;590;48.772;8.846;2022-10-30T00:04:18;7.90;;;7.53;;
253;SDS011;590;48.772;8.846;2022-10-30T00:06:47;13.07;;;8.03;;
253;SDS011;590;48.772;8.846;2022-10-30T00:09:15;7.93;;;7.53;;
253;SDS011;590;48.772;8.846;2022-10-30T00:11:44;7.73;;;7.33;;
253;SDS011;590;48.772;8.846;2022-10-30T00:14:12;11.63;;;7.30;;
253;SDS011;590;48.772;8.846;2022-10-30T00:16:40;8.27;;;7.13;;
253;SDS011;590;48.772;8.846;2022-10-30T00:19:08;9.03;;;7.80;;
253;SDS011;590;48.772;8.846;2022-10-30T00:21:37;10.23;;;8.00;;
253;SDS011;590;48.772;8.846;2022-10-30T00:24:05;8.07;;;7.70;;
253;SDS011;590;48.772;8.846;2022-10-30T00:26:34;8.20;;;7.20;;
253;SDS011;590;48.772;8.846;2022-10-30T00:29:02;8.80;;;7.83;;
253;SDS011;590;48.772;8.846;2022-10-30T00:31:30;9.03;;;6.73;;
253;SDS011;590;48.772;8.846;2022-10-30T00:33:58;8.40;;;7.03;;
253;SDS011;590;48.772;8.846;2022-10-30T00:36:26;9.80;;;7.00;;
253;SDS011;590;48.772;8.846;2022-10-30T00:38:55;11.17;;;7.70;;
253;SDS011;590;48.772;8.846;2022-10-30T00:41:23;7.87;;;6.30;;
253;SDS011;590;48.772;8.846;2022-10-30T00:43:51;7.80;;;6.73;;
253;SDS011;590;48.772;8.846;2022-10-30T00:46:22;7.57;;;7.10;;
253;SDS011;590;48.772;8.846;2022-10-30T00:48:54;9.73;;;7.10;;
253;SDS011;590;48.772;8.846;2022-10-30T00:51:27;12.43;;;7.50;;
253;SDS011;590;48.772;8.846;2022-10-30T00:53:58;8.37;;;6.83;;
253;SDS011;590;48.772;8.846;2022-10-30T00:56:29;9.80;;;6.70;;
253;SDS011;590;48.772;8.846;2022-10-30T00:58:58;9.60;;;6.73;;
253;SDS011;590;48.772;8.846;2022-10-30T01:01:30;6.90;;;6.53;;
253;SDS011;590;48.772;8.846;2022-10-30T01:04:02;8.07;;;6.63;;
253;SDS011;590;48.772;8.846;2022-10-30T01:06:32;9.80;;;7.00;;
253;SDS011;590;48.772;8.846;2022-10-30T01:09:04;9.63;;;6.23;;
253;SDS011;590;48.772;8.846;2022-10-30T01:11:32;9.60;;;7.03;;
253;SDS011;590;48.772;8.846;2022-10-30T01:14:01;8.27;;;6.77;;
253;SDS011;590;48.772;8.846;2022-10-30T01:16:37;7.90;;;6.40;;
253;SDS011;590;48.772;8.846;2022-10-30T01:19:21;9.97;;;6.77;;
253;SDS011;590;48.772;8.846;2022-10-30T01:22:00;9.53;;;6.97;;
253;SDS011;590;48.772;8.846;2022-10-30T01:24:45;6.83;;;6.43;;
253;SDS011;590;48.772;8.846;2022-10-30T01:27:25;7.03;;;6.70;;
253;SDS011;590;48.772;8.846;2022-10-30T01:30:07;7.40;;;7.00;;
253;SDS011;590;48.772;8.846;2022-10-30T01:32:45;8.23;;;6.53;;
253;SDS011;590;48.772;8.846;2022-10-30T01:35:26;7.93;;;7.40;;
253;SDS011;590;48.772;8.846;2022-10-30T01:38:00;8.60;;;6.63;;
253;SDS011;590;48.772;8.846;2022-10-30T01:40:34;9.80;;;7.20;;
253;SDS011;590;48.772;8.846;2022-10-30T01:43:03;9.73;;;6.70;;
253;SDS011;590;48.772;8.846;2022-10-30T01:45:41;8.97;;;7.07;;
253;SDS011;590;48.772;8.846;2022-10-30T01:48:26;7.40;;;6.10;;
253;SDS011;590;48.772;8.846;2022-10-30T01:51:09;7.70;;;6.13;;
253;SDS011;590;48.772;8.846;2022-10-30T01:53:44;7.50;;;6.60;;
253;SDS011;590;48.772;8.846;2022-10-30T01:56:19;8.07;;;6.93;;
253;SDS011;590;48.772;8.846;2022-10-30T01:58:59;7.47;;;6.40;;
253;SDS011;590;48.772;8.846;2022-10-30T02:01:33;8.93;;;7.10;;
253;SDS011;590;48.772;8.846;2022-10-30T02:04:03;6.90;;;6.50;;
253;SDS011;590;48.772;8.846;2022-10-30T02:06:31;7.80;;;6.27;;
253;SDS011;590;48.772;8.846;2022-10-30T02:08:59;9.20;;;6.50;;
253;SDS011;590;48.772;8.846;2022-10-30T02:11:28;9.80;;;6.00;;
253;SDS011;590;48.772;8.846;2022-10-30T02:13:59;7.60;;;5.77;;
253;SDS011;590;48.772;8.846;2022-10-30T02:16:31;7.97;;;5.90;;
253;SDS011;590;48.772;8.846;2022-10-30T02:19:02;6.13;;;5.60;;
253;SDS011;590;48.772;8.846;2022-10-30T02:21:33;6.57;;;6.10;;
253;SDS011;590;48.772;8.846;2022-10-30T02:24:01;9.47;;;7.47;;
253;SDS011;590;48.772;8.846;2022-10-30T02:26:29;7.10;;;6.70;;
253;SDS011;590;48.772;8.846;2022-10-30T02:28:57;10.43;;;6.13;;
253;SDS011;590;48.772;8.846;2022-10-30T02:31:25;7.50;;;6.10;;
253;SDS011;590;48.772;8.846;2022-10-30T02:33:53;8.93;;;7.23;;
253;SDS011;590;48.772;8.846;2022-10-30T02:36:21;8.30;;;5.67;;
253;SDS011;590;48.772;8.846;2022-10-30T02:38:50;9.30;;;6.80;;
253;SDS011;590;48.772;8.846;2022-10-30T02:41:20;8.50;;;6.97;;
253;SDS011;590;48.772;8.846;2022-10-30T02:43:49;6.33;;;5.63;;
253;SDS011;590;48.772;8.846;2022-10-30T02:46:19;8.60;;;6.77;;
253;SDS011;590;48.772;8.846;2022-10-30T02:48:47;5.80;;;5.50;;
253;SDS011;590;48.772;8.846;2022-10-30T02:51:15;7.63;;;6.20;;
253;SDS011;590;48.772;8.846;2022-10-30T02:53:43;7.30;;;6.30;;
253;SDS011;590;48.772;8.846;2022-10-30T02:56:14;5.87;;;5.57;;
253;SDS011;590;48.772;8.846;2022-10-30T02:58:42;7.30;;;5.90;;
253;SDS011;590;48.772;8.846;2022-10-30T03:01:11;7.90;;;6.93;;
253;SDS011;590;48.772;8.846;2022-10-30T03:03:41;8.83;;;6.43;;
253;SDS011;590;48.772;8.846;2022-10-30T03:06:10;6.53;;;5.67;;
253;SDS011;590;48.772;8.846;2022-10-30T03:08:40;7.07;;;5.53;;
253;SDS011;590;48.772;8.846;2022-10-30T03:11:10;6.93;;;5.33;;
253;SDS011;590;48.772;8.846;2022-10-30T03:13:42;6.40;;;5.70;;
253;SDS011;590;48.772;8.846;2022-10-30T03:16:11;8.10;;;6.57;;
253;SDS011;590;48.772;8.846;2022-10-30T03:18:41;5.80;;;4.63;;
253;SDS011;590;48.772;8.846;2022-10-30T03:21:10;5.87;;;5.20;;
253;SDS011;590;48.772;8.846;2022-10-30T03:23:40;8.73;;;5.30;;
253;SDS011;590;48.772;8.846;2022-10-30T03:26:09;5.63;;;5.23;;
253;SDS011;590;48.772;8.846;2022-10-30T03:28:37;6.60;;;5.53;;
253;SDS011;590;48.772;8.846;2022-10-30T03:31:07;8.50;;;5.83;;
253;SDS011;590;48.772;8.846;2022-10-30T03:33:36;9.73;;;5.40;;
253;SDS011;590;48.772;8.846;2022-10-30T03:36:04;5.63;;;5.37;;
253;SDS011;590;48.772;8.846;2022-10-30T03:38:33;6.73;;;5.33;;
253;SDS011;590;48.772;8.846;2022-10-30T03:41:02;7.27;;;5.47;;
253;SDS011;590;48.772;8.846;2022-10-30T03:43:30;7.33;;;5.53;;
253;SDS011;590;48.772;8.846;2022-10-30T03:45:58;8.57;;;5.70;;
253;SDS011;590;48.772;8.846;2022-10-30T03:48:28;9.67;;;5.80;;
253;SDS011;590;48.772;8.846;2022-10-30T03:50:57;7.90;;;5.83;;
253;SDS011;590;48.772;8.846;2022-10-30T03:53:26;7.50;;;5.93;;
253;SDS011;590;48.772;8.846;2022-10-30T03:55:58;7.43;;;5.50;;
253;SDS011;590;48.772;8.846;2022-10-30T03:58:27;6.00;;;4.93;;
253;SDS011;590;48.772;8.846;2022-10-30T04:00:59;9.13;;;5.67;;
253;SDS011;590;48.772;8.846;2022-10-30T04:03:29;4.87;;;4.57;;
253;SDS011;590;48.772;8.846;2022-10-30T04:05:57;6.67;;;5.37;;
253;SDS011;590;48.772;8.846;2022-10-30T04:08:25;5.50;;;4.93;;
253;SDS011;590;48.772;8.846;2022-10-30T04:10:53;5.90;;;4.87;;
253;SDS011;590;48.772;8.846;2022-10-30T04:13:21;6.17;;;5.43;;
253;SDS011;590;48.772;8.846;2022-10-30T04:15:49;5.23;;;4.30;;
253;SDS011;590;48.772;8.846;2022-10-30T04:18:23;7.00;;;4.67;;
253;SDS011;590;48.772;8.846;2022-10-30T04:20:52;5.70;;;4.60;;
253;SDS011;590;48.772;8.846;2022-10-30T04:23:21;7.10;;;4.87;;
253;SDS011;590;48.772;8.846;2022-10-30T04:25:49;6.70;;;5.10;;
253;SDS011;590;48.772;8.846;2022-10-30T04:28:17;8.57;;;5.27;;
253;SDS011;590;48.772;8.846;2022-10-30T04:30:46;10.10;;;5.80;;
253;SDS011;590;48.772;8.846;2022-10-30T04:33:14;7.63;;;4.90;;
253;SDS011;590;48.772;8.846;2022-10-30T04:35:42;5.63;;;4.87;;
253;SDS011;590;48.772;8.846;2022-10-30T04:38:12;4.73;;;4.40;;
253;SDS011;590;48.772;8.846;2022-10-30T04:40:42;5.40;;;4.70;;
253;SDS011;590;48.772;8.846;2022-10-30T04:43:11;5.00;;;4.77;;
253;SDS011;590;48.772;8.846;2022-10-30T04:45:40;5.53;;;5.23;;
253;SDS011;590;48.772;8.846;2022-10-30T04:48:09;6.40;;;4.87;;
253;SDS011;590;48.772;8.846;2022-10-30T04:50:38;6.73;;;5.10;;
253;SDS011;590;48.772;8.846;2022-10-30T04:53:07;5.77;;;4.80;;
253;SDS011;590;48.772;8.846;2022-10-30T04:55:40;5.90;;;4.23;;
253;SDS011;590;48.772;8.846;2022-10-30T04:58:09;6.20;;;4.90;;
253;SDS011;590;48.772;8.846;2022-10-30T05:00:38;5.93;;;4.27;;
253;SDS011;590;48.772;8.846;2022-10-30T05:03:06;7.13;;;5.20;;
253;SDS011;590;48.772;8.846;2022-10-30T05:05:36;5.97;;;4.83;;
253;SDS011;590;48.772;8.846;2022-10-30T05:08:04;7.40;;;5.90;;
253;SDS011;590;48.772;8.846;2022-10-30T05:10:32;8.50;;;5.57;;
253;SDS011;590;48.772;8.846;2022-10-30T05:13:01;7.50;;;6.00;;
253;SDS011;590;48.772;8.846;2022-10-30T05:15:29;6.07;;;5.20;;
253;SDS011;590;48.772;8.846;2022-10-30T05:17:57;6.20;;;5.73;;
253;SDS011;590;48.772;8.846;2022-10-30T05:20:26;5.77;;;5.43;;
253;SDS011;590;48.772;8.846;2022-10-30T05:22:54;6.60;;;6.17;;
253;SDS011;590;48.772;8.846;2022-10-30T05:25:22;4.87;;;4.60;;
253;SDS011;590;48.772;8.846;2022-10-30T05:27:55;5.30;;;5.00;;
253;SDS011;590;48.772;8.846;2022-10-30T05:30:26;5.07;;;4.77;;
253;SDS011;590;48.772;8.846;2022-10-30T05:32:57;5.57;;;4.70;;
253;SDS011;590;48.772;8.846;2022-10-30T05:35:26;7.83;;;5.43;;
253;SDS011;590;48.772;8.846;2022-10-30T05:37:55;6.43;;;5.80;;
253;SDS011;590;48.772;8.846;2022-10-30T05:40:23;5.80;;;5.17;;
253;SDS011;590;48.772;8.846;2022-10-30T05:42:51;8.30;;;5.90;;
253;SDS011;590;48.772;8.846;2022-10-30T05:45:19;8.97;;;5.50;;
253;SDS011;590;48.772;8.846;2022-10-30T05:47:54;7.73;;;5.50;;
253;SDS011;590;48.772;8.846;2022-10-30T05:50:23;6.37;;;5.10;;
253;SDS011;590;48.772;8.846;2022-10-30T05:52:53;5.40;;;4.50;;
253;SDS011;590;48.772;8.846;2022-10-30T05:55:22;5.80;;;4.37;;
253;SDS011;590;48.772;8.846;2022-10-30T05:57:53;5.40;;;4.70;;
253;SDS011;590;48.772;8.846;2022-10-30T06:00:22;5.80;;;4.00;;
253;SDS011;590;48.772;8.846;2022-10-30T06:02:51;5.60;;;4.17;;
253;SDS011;590;48.772;8.846;2022-10-30T06:05:20;4.40;;;4.10;;
253;SDS011;590;48.772;8.846;2022-10-30T06:07:48;6.80;;;4.10;;
253;SDS011;590;48.772;8.846;2022-10-30T06:10:16;5.70;;;3.73;;
253;SDS011;590;48.772;8.846;2022-10-30T06:12:50;5.33;;;4.10;;
253;SDS011;590;48.772;8.846;2022-10-30T06:15:19;5.20;;;4.40;;
253;SDS011;590;48.772;8.846;2022-10-30T06:17:47;6.57;;;5.07;;
253;SDS011;590;48.772;8.846;2022-10-30T06:20:15;6.40;;;4.20;;
253;SDS011;590;48.772;8.846;2022-10-30T06:22:53;6.23;;;4.80;;
253;SDS011;590;48.772;8.846;2022-10-30T06:25:21;4.77;;;4.10;;
253;SDS011;590;48.772;8.846;2022-10-30T06:27:49;5.00;;;4.40;;
253;SDS011;590;48.772;8.846;2022-10-30T06:30:18;5.20;;;3.87;;
253;SDS011;590;48.772;8.846;2022-10-30T06:32:46;6.63;;;4.80;;
253;SDS011;590;48.772;8.846;2022-10-30T06:35:14;12.10;;;7.10;;
253;SDS011;590;48.772;8.846;2022-10-30T06:37:46;14.50;;;8.60;;
253;SDS011;590;48.772;8.846;2022-10-30T06:40:16;10.30;;;7.27;;
253;SDS011;590;48.772;8.846;2022-10-30T06:42:44;12.70;;;7.67;;
253;SDS011;590;48.772;8.846;2022-10-30T06:45:51;15.47;;;8.30;;
253;SDS011;590;48.772;8.846;2022-10-30T06:48:04;8.60;;;6.97;;
253;SDS011;590;48.772;8.846;2022-10-30T06:50:53;9.43;;;6.80;;
253;SDS011;590;48.772;8.846;2022-10-30T06:53:26;7.73;;;6.30;;
253;SDS011;590;48.772;8.846;2022-10-30T06:56:05;10.53;;;7.07;;
253;SDS011;590;48.772;8.846;2022-10-30T06:58:35;7.13;;;5.87;;
253;SDS011;590;48.772;8.846;2022-10-30T07:01:07;9.60;;;6.40;;
253;SDS011;590;48.772;8.846;2022-10-30T07:03:35;7.90;;;7.03;;
253;SDS011;590;48.772;8.846;2022-10-30T07:06:03;8.90;;;6.90;;
253;SDS011;590;48.772;8.846;2022-10-30T07:08:32;11.63;;;7.40;;
253;SDS011;590;48.772;8.846;2022-10-30T07:11:02;6.43;;;5.87;;
253;SDS011;590;48.772;8.846;2022-10-30T07:13:31;9.40;;;6.30;;
253;SDS011;590;48.772;8.846;2022-10-30T07:15:59;8.37;;;6.03;;
253;SDS011;590;48.772;8.846;2022-10-30T07:18:27;9.87;;;5.83;;
253;SDS011;590;48.772;8.846;2022-10-30T07:20:55;13.03;;;7.00;;
253;SDS011;590;48.772;8.846;2022-10-30T07:23:23;5.63;;;5.20;;
253;SDS011;590;48.772;8.846;2022-10-30T07:25:51;7.60;;;5.33;;
253;SDS011;590;48.772;8.846;2022-10-30T07:28:24;7.43;;;5.43;;
253;SDS011;590;48.772;8.846;2022-10-30T07:30:54;7.23;;;5.43;;
253;SDS011;590;48.772;8.846;2022-10-30T07:33:22;6.13;;;5.43;;
253;SDS011;590;48.772;8.846;2022-10-30T07:35:50;7.23;;;6.00;;
253;SDS011;590;48.772;8.846;2022-10-30T07:38:18;5.40;;;5.10;;
253;SDS011;590;48.772;8.846;2022-10-30T07:40:50;6.40;;;5.80;;
253;SDS011;590;48.772;8.846;2022-10-30T07:43:18;7.13;;;6.70;;
253;SDS011;590;48.772;8.846;2022-10-30T07:45:46;7.03;;;6.40;;
253;SDS011;590;48.772;8.846;2022-10-30T07:48:16;8.67;;;7.13;;
253;SDS011;590;48.772;8.846;2022-10-30T07:50:44;10.03;;;6.10;;
253;SDS011;590;48.772;8.846;2022-10-30T07:53:12;7.13;;;6.10;;
253;SDS011;590;48.772;8.846;2022-10-30T07:55:43;6.33;;;5.97;;
253;SDS011;590;48.772;8.846;2022-10-30T07:58:11;9.30;;;6.97;;
253;SDS011;590;48.772;8.846;2022-10-30T08:00:39;9.10;;;5.60;;
253;SDS011;590;48.772;8.846;2022-10-30T08:03:07;10.10;;;6.43;;
253;SDS011;590;48.772;8.846;2022-10-30T08:05:38;9.17;;;6.10;;
253;SDS011;590;48.772;8.846;2022-10-30T08:08:06;7.30;;;5.80;;
253;SDS011;590;48.772;8.846;2022-10-30T08:10:36;6.37;;;5.00;;
253;SDS011;590;48.772;8.846;2022-10-30T08:13:06;6.60;;;5.20;;
253;SDS011;590;48.772;8.846;2022-10-30T08:15:34;7.37;;;5.47;;
253;SDS011;590;48.772;8.846;2022-10-30T08:18:03;8.20;;;5.40;;
253;SDS011;590;48.772;8.846;2022-10-30T08:20:31;6.77;;;5.40;;
253;SDS011;590;48.772;8.846;2022-10-30T08:23:00;6.40;;;5.70;;
253;SDS011;590;48.772;8.846;2022-10-30T08:25:29;5.70;;;5.40;;
253;SDS011;590;48.772;8.846;2022-10-30T08:27:58;10.23;;;7.00;;
253;SDS011;590;48.772;8.846;2022-10-30T08:30:27;9.70;;;6.80;;
253;SDS011;590;48.772;8.846;2022-10-30T08:32:56;8.00;;;6.70;;
253;SDS011;590;48.772;8.846;2022-10-30T08:35:25;7.33;;;6.73;;
253;SDS011;590;48.772;8.846;2022-10-30T08:37:54;7.53;;;6.70;;
253;SDS011;590;48.772;8.846;2022-10-30T08:40:24;9.93;;;7.20;;
253;SDS011;590;48.772;8.846;2022-10-30T08:42:53;6.37;;;6.00;;
253;SDS011;590;48.772;8.846;2022-10-30T08:45:23;7.50;;;5.70;;
253;SDS011;590;48.772;8.846;2022-10-30T08:47:56;6.97;;;5.20;;
253;SDS011;590;48.772;8.846;2022-10-30T08:50:25;5.97;;;5.33;;
253;SDS011;590;48.772;8.846;2022-10-30T08:52:53;6.73;;;5.27;;
253;SDS011;590;48.772;8.846;2022-10-30T08:55:23;10.10;;;5.23;;
253;SDS011;590;48.772;8.846;2022-10-30T08:57:51;4.90;;;4.30;;
253;SDS011;590;48.772;8.846;2022-10-30T09:00:19;4.60;;;4.23;;
253;SDS011;590;48.772;8.846;2022-10-30T09:02:47;7.30;;;4.70;;
253;SDS011;590;48.772;8.846;2022-10-30T09:05:15;7.10;;;4.80;;
253;SDS011;590;48.772;8.846;2022-10-30T09:07:43;9.93;;;5.73;;
253;SDS011;590;48.772;8.846;2022-10-30T09:10:12;7.23;;;5.50;;
253;SDS011;590;48.772;8.846;2022-10-30T09:12:41;4.90;;;4.43;;
253;SDS011;590;48.772;8.846;2022-10-30T09:15:09;4.83;;;4.10;;
253;SDS011;590;48.772;8.846;2022-10-30T09:17:37;5.70;;;4.07;;
253;SDS011;590;48.772;8.846;2022-10-30T09:20:05;4.47;;;4.20;;
253;SDS011;590;48.772;8.846;2022-10-30T09:22:38;4.60;;;4.30;;
253;SDS011;590;48.772;8.846;2022-10-30T09:25:07;8.63;;;5.20;;
253;SDS011;590;48.772;8.846;2022-10-30T09:27:36;4.70;;;4.17;;
253;SDS011;590;48.772;8.846;2022-10-30T09:30:06;4.87;;;4.17;;
253;SDS011;590;48.772;8.846;2022-10-30T09:32:35;8.43;;;5.23;;
253;SDS011;590;48.772;8.846;2022-10-30T09:35:04;6.03;;;4.80;;
253;SDS011;590;48.772;8.846;2022-10-30T09:37:32;4.70;;;4.30;;
253;SDS011;590;48.772;8.846;2022-10-30T09:40:01;6.30;;;4.63;;
253;SDS011;590;48.772;8.846;2022-10-30T09:42:40;9.00;;;6.40;;
253;SDS011;590;48.772;8.846;2022-10-30T09:45:16;7.20;;;5.70;;
253;SDS011;590;48.772;8.846;2022-10-30T09:47:58;6.10;;;5.20;;
253;SDS011;590;48.772;8.846;2022-10-30T09:50:38;6.10;;;4.10;;
253;SDS011;590;48.772;8.846;2022-10-30T09:53:14;5.00;;;4.30;;
253;SDS011;590;48.772;8.846;2022-10-30T09:55:50;9.03;;;5.50;;
253;SDS011;590;48.772;8.846;2022-10-30T09:58:25;9.07;;;5.03;;
253;SDS011;590;48.772;8.846;2022-10-30T10:01:04;5.10;;;4.03;;
253;SDS011;590;48.772;8.846;2022-10-30T10:03:40;6.53;;;4.37;;
253;SDS011;590;48.772;8.846;2022-10-30T10:06:23;5.70;;;3.83;;
253;SDS011;590;48.772;8.846;2022-10-30T10:08:52;5.47;;;4.73;;
253;SDS011;590;48.772;8.846;2022-10-30T10:11:26;7.50;;;4.97;;
253;SDS011;590;48.772;8.846;2022-10-30T10:13:59;3.57;;;3.40;;
253;SDS011;590;48.772;8.846;2022-10-30T10:16:36;5.10;;;4.20;;
253;SDS011;590;48.772;8.846;2022-10-30T10:19:08;7.70;;;3.53;;
253;SDS011;590;48.772;8.846;2022-10-30T10:21:43;5.77;;;4.20;;
253;SDS011;590;48.772;8.846;2022-10-30T10:24:14;4.50;;;3.70;;
253;SDS011;590;48.772;8.846;2022-10-30T10:26:46;5.87;;;3.50;;
253;SDS011;590;48.772;8.846;2022-10-30T10:29:22;4.93;;;3.30;;
253;SDS011;590;48.772;8.846;2022-10-30T10:32:12;4.63;;;3.80;;
253;SDS011;590;48.772;8.846;2022-10-30T10:35:09;4.23;;;3.03;;
253;SDS011;590;48.772;8.846;2022-10-30T10:37:51;4.70;;;3.37;;
253;SDS011;590;48.772;8.846;2022-10-30T10:40:30;4.13;;;3.53;;
253;SDS011;590;48.772;8.846;2022-10-30T10:43:10;6.43;;;3.47;;
253;SDS011;590;48.772;8.846;2022-10-30T10:45:47;4.90;;;3.20;;
253;SDS011;590;48.772;8.846;2022-10-30T10:48:31;6.60;;;4.27;;
253;SDS011;590;48.772;8.846;2022-10-30T10:51:14;4.50;;;4.00;;
253;SDS011;590;48.772;8.846;2022-10-30T10:53:47;4.33;;;3.13;;
253;SDS011;590;48.772;8.846;2022-10-30T10:56:21;3.37;;;3.17;;
253;SDS011;590;48.772;8.846;2022-10-30T10:58:55;3.80;;;3.60;;
253;SDS011;590;48.772;8.846;2022-10-30T11:01:27;4.57;;;3.67;;
253;SDS011;590;48.772;8.846;2022-10-30T11:04:04;5.53;;;3.33;;
253;SDS011;590;48.772;8.846;2022-10-30T11:06:37;4.13;;;3.20;;
253;SDS011;590;48.772;8.846;2022-10-30T11:09:13;4.53;;;3.60;;
253;SDS011;590;48.772;8.846;2022-10-30T11:11:45;6.47;;;3.77;;
253;SDS011;590;48.772;8.846;2022-10-30T11:14:14;5.13;;;3.30;;
253;SDS011;590;48.772;8.846;2022-10-30T11:16:48;4.57;;;3.07;;
253;SDS011;590;48.772;8.846;2022-10-30T11:19:24;2.80;;;2.60;;
253;SDS011;590;48.772;8.846;2022-10-30T11:21:52;4.90;;;3.40;;
253;SDS011;590;48.772;8.846;2022-10-30T11:24:26;4.87;;;3.10;;
253;SDS011;590;48.772;8.846;2022-10-30T11:26:56;3.30;;;3.03;;
253;SDS011;590;48.772;8.846;2022-10-30T11:29:26;3.67;;;3.47;;
253;SDS011;590;48.772;8.846;2022-10-30T11:31:59;3.93;;;2.60;;
253;SDS011;590;48.772;8.846;2022-10-30T11:34:33;3.83;;;3.27;;
253;SDS011;590;48.772;8.846;2022-10-30T11:37:02;3.63;;;3.23;;
253;SDS011;590;48.772;8.846;2022-10-30T11:39:32;3.13;;;2.97;;
253;SDS011;590;48.772;8.846;2022-10-30T11:42:02;4.17;;;3.23;;
253;SDS011;590;48.772;8.846;2022-10-30T11:44:47;4.20;;;2.93;;
253;SDS011;590;48.772;8.846;2022-10-30T11:47:17;3.07;;;2.87;;
253;SDS011;590;48.772;8.846;2022-10-30T11:49:50;5.13;;;3.80;;
253;SDS011;590;48.772;8.846;2022-10-30T11:52:20;5.00;;;3.37;;
253;SDS011;590;48.772;8.846;2022-10-30T11:54:51;4.97;;;4.10;;
253;SDS011;590;48.772;8.846;2022-10-30T11:57:22;4.80;;;4.50;;
253;SDS011;590;48.772;8.846;2022-10-30T11:59:54;5.07;;;4.70;;
253;SDS011;590;48.772;8.846;2022-10-30T12:02:31;8.63;;;5.10;;
253;SDS011;590;48.772;8.846;2022-10-30T12:05:26;7.30;;;5.10;;
253;SDS011;590;48.772;8.846;2022-10-30T12:08:10;5.17;;;3.93;;
253;SDS011;590;48.772;8.846;2022-10-30T12:10:44;5.10;;;4.20;;
253;SDS011;590;48.772;8.846;2022-10-30T12:13:14;4.93;;;3.20;;
253;SDS011;590;48.772;8.846;2022-10-30T12:15:44;5.20;;;3.10;;
253;SDS011;590;48.772;8.846;2022-10-30T12:18:15;3.73;;;2.77;;
253;SDS011;590;48.772;8.846;2022-10-30T12:20:49;3.13;;;2.83;;
253;SDS011;590;48.772;8.846;2022-10-30T12:23:23;3.50;;;2.87;;
253;SDS011;590;48.772;8.846;2022-10-30T12:25:58;5.03;;;2.37;;
253;SDS011;590;48.772;8.846;2022-10-30T12:28:31;3.13;;;2.40;;
253;SDS011;590;48.772;8.846;2022-10-30T12:31:12;3.00;;;2.80;;
253;SDS011;590;48.772;8.846;2022-10-30T12:34:02;3.00;;;2.67;;
253;SDS011;590;48.772;8.846;2022-10-30T12:36:55;3.50;;;2.97;;
253;SDS011;590;48.772;8.846;2022-10-30T12:39:42;5.87;;;3.13;;
253;SDS011;590;48.772;8.846;2022-10-30T12:42:21;3.70;;;3.17;;
253;SDS011;590;48.772;8.846;2022-10-30T12:45:01;4.40;;;3.00;;
253;SDS011;590;48.772;8.846;2022-10-30T12:47:40;3.43;;;3.00;;
253;SDS011;590;48.772;8.846;2022-10-30T12:50:32;2.67;;;2.50;;
253;SDS011;590;48.772;8.846;2022-10-30T12:53:19;3.17;;;2.70;;
253;SDS011;590;48.772;8.846;2022-10-30T12:56:04;2.23;;;2.03;;
253;SDS011;590;48.772;8.846;2022-10-30T12:58:42;3.37;;;2.40;;
253;SDS011;590;48.772;8.846;2022-10-30T13:01:19;2.93;;;2.57;;
253;SDS011;590;48.772;8.846;2022-10-30T13:03:59;2.90;;;2.20;;
253;SDS011;590;48.772;8.846;2022-10-30T13:06:41;2.53;;;2.10;;
253;SDS011;590;48.772;8.846;2022-10-30T13:09:17;2.47;;;2.13;;
253;SDS011;590;48.772;8.846;2022-10-30T13:11:50;2.97;;;1.97;;
253;SDS011;590;48.772;8.846;2022-10-30T13:14:20;3.93;;;2.13;;
253;SDS011;590;48.772;8.846;2022-10-30T13:16:54;3.27;;;2.20;;
253;SDS011;590;48.772;8.846;2022-10-30T13:19:22;2.50;;;2.30;;
253;SDS011;590;48.772;8.846;2022-10-30T13:21:54;3.40;;;2.37;;
253;SDS011;590;48.772;8.846;2022-10-30T13:24:31;2.00;;;1.90;;
253;SDS011;590;48.772;8.846;2022-10-30T13:27:10;3.13;;;1.97;;
253;SDS011;590;48.772;8.846;2022-10-30T13:29:44;3.80;;;2.07;;
253;SDS011;590;48.772;8.846;2022-10-30T13:32:25;2.80;;;1.90;;
253;SDS011;590;48.772;8.846;2022-10-30T13:35:07;3.77;;;2.47;;
253;SDS011;590;48.772;8.846;2022-10-30T13:37:48;2.10;;;1.93;;
253;SDS011;590;48.772;8.846;2022-10-30T13:40:27;2.47;;;2.27;;
253;SDS011;590;48.772;8.846;2022-10-30T13:43:01;3.00;;;2.80;;
253;SDS011;590;48.772;8.846;2022-10-30T13:45:44;2.60;;;2.40;;
253;SDS011;590;48.772;8.846;2022-10-30T13:48:37;2.20;;;1.87;;
253;SDS011;590;48.772;8.846;2022-10-30T13:51:22;1.93;;;1.83;;
253;SDS011;590;48.772;8.846;2022-10-30T13:53:59;2.27;;;2.07;;
253;SDS011;590;48.772;8.846;2022-10-30T13:56:33;5.00;;;2.30;;
253;SDS011;590;48.772;8.846;2022-10-30T13:59:04;3.53;;;2.10;;
253;SDS011;590;48.772;8.846;2022-10-30T14:01:41;3.40;;;1.93;;
253;SDS011;590;48.772;8.846;2022-10-30T14:04:24;4.47;;;2.23;;
253;SDS011;590;48.772;8.846;2022-10-30T14:07:09;2.87;;;2.23;;
253;SDS011;590;48.772;8.846;2022-10-30T14:09:48;2.67;;;2.30;;
253;SDS011;590;48.772;8.846;2022-10-30T14:12:45;3.23;;;2.30;;
253;SDS011;590;48.772;8.846;2022-10-30T14:15:19;3.03;;;2.77;;
253;SDS011;590;48.772;8.846;2022-10-30T14:24:03;6.20;;;5.50;;
253;SDS011;590;48.772;8.846;2022-10-30T14:26:38;6.03;;;4.97;;
253;SDS011;590;48.772;8.846;2022-10-30T14:29:35;5.17;;;4.07;;
253;SDS011;590;48.772;8.846;2022-10-30T14:35:31;3.53;;;2.57;;
253;SDS011;590;48.772;8.846;2022-10-30T14:38:20;4.80;;;3.30;;
253;SDS011;590;48.772;8.846;2022-10-30T14:46:51;4.00;;;3.07;;
253;SDS011;590;48.772;8.846;2022-10-30T14:49:48;5.70;;;2.87;;
253;SDS011;590;48.772;8.846;2022-10-30T14:52:28;2.97;;;2.70;;
253;SDS011;590;48.772;8.846;2022-10-30T14:55:13;2.70;;;2.37;;
253;SDS011;590;48.772;8.846;2022-10-30T14:57:50;1.97;;;1.87;;
253;SDS011;590;48.772;8.846;2022-10-30T15:00:38;2.30;;;2.17;;
253;SDS011;590;48.772;8.846;2022-10-30T15:03:09;2.83;;;2.37;;
253;SDS011;590;48.772;8.846;2022-10-30T15:05:46;3.50;;;2.80;;
253;SDS011;590;48.772;8.846;2022-10-30T15:08:20;3.67;;;3.47;;
253;SDS011;590;48.772;8.846;2022-10-30T15:11:12;4.13;;;2.63;;
253;SDS011;590;48.772;8.846;2022-10-30T15:13:52;3.10;;;3.00;;
253;SDS011;590;48.772;8.846;2022-10-30T15:16:22;3.20;;;2.80;;
253;SDS011;590;48.772;8.846;2022-10-30T15:18:55;2.77;;;2.60;;
253;SDS011;590;48.772;8.846;2022-10-30T15:21:27;3.60;;;3.40;;
253;SDS011;590;48.772;8.846;2022-10-30T15:23:59;3.90;;;3.77;;
253;SDS011;590;48.772;8.846;2022-10-30T15:26:30;3.80;;;3.60;;
253;SDS011;590;48.772;8.846;2022-10-30T15:29:01;3.20;;;3.03;;
253;SDS011;590;48.772;8.846;2022-10-30T15:31:30;3.87;;;3.67;;
253;SDS011;590;48.772;8.846;2022-10-30T15:34:00;7.33;;;3.80;;
253;SDS011;590;48.772;8.846;2022-10-30T15:36:32;4.20;;;3.80;;
253;SDS011;590;48.772;8.846;2022-10-30T15:39:08;3.70;;;3.50;;
253;SDS011;590;48.772;8.846;2022-10-30T15:41:39;3.90;;;3.63;;
253;SDS011;590;48.772;8.846;2022-10-30T15:44:10;4.70;;;4.00;;
253;SDS011;590;48.772;8.846;2022-10-30T15:46:43;4.40;;;3.70;;
253;SDS011;590;48.772;8.846;2022-10-30T15:49:15;4.60;;;3.63;;
253;SDS011;590;48.772;8.846;2022-10-30T15:51:52;4.03;;;3.80;;
253;SDS011;590;48.772;8.846;2022-10-30T15:54:20;3.63;;;3.43;;
253;SDS011;590;48.772;8.846;2022-10-30T15:56:50;4.30;;;3.30;;
253;SDS011;590;48.772;8.846;2022-10-30T15:59:47;4.87;;;3.33;;
253;SDS011;590;48.772;8.846;2022-10-30T16:02:18;4.00;;;3.20;;
253;SDS011;590;48.772;8.846;2022-10-30T16:04:49;4.83;;;3.67;;
253;SDS011;590;48.772;8.846;2022-10-30T16:07:18;4.03;;;3.80;;
253;SDS011;590;48.772;8.846;2022-10-30T16:09:52;6.03;;;4.07;;
253;SDS011;590;48.772;8.846;2022-10-30T16:12:22;4.97;;;4.57;;
253;SDS011;590;48.772;8.846;2022-10-30T16:14:53;7.07;;;6.67;;
253;SDS011;590;48.772;8.846;2022-10-30T16:17:22;6.33;;;5.97;;
253;SDS011;590;48.772;8.846;2022-10-30T16:19:53;10.00;;;8.73;;
253;SDS011;590;48.772;8.846;2022-10-30T16:22:26;8.37;;;6.10;;
253;SDS011;590;48.772;8.846;2022-10-30T16:24:57;7.10;;;5.40;;
253;SDS011;590;48.772;8.846;2022-10-30T16:27:25;3.70;;;3.50;;
253;SDS011;590;48.772;8.846;2022-10-30T16:29:55;5.07;;;4.77;;
253;SDS011;590;48.772;8.846;2022-10-30T16:32:25;7.20;;;6.80;;
253;SDS011;590;48.772;8.846;2022-10-30T16:35:06;7.47;;;6.40;;